sensor_id;sensor_type;location;lat;lon;timestamp;P1;durP1;ratioP1;P2;durP2;ratioP2
64353;SDS011;50681;53.334;-6.536;2023-02-26T00:00:03;11.00;;;2.17;;
64353;SDS011;50681;53.334;-6.536;2023-02-26T00:02:34;10.25;;;2.22;;
64353;SDS011;50681;53.334;-6.536;2023-02-26T00:05:12;9.63;;;2.17;;
64353;SDS011;50681;53.334;-6.536;2023-02-26T00:07:38;11.40;;;2.35;;
64353;SDS011;50681;53.334;-6.536;2023-02-26T00:10:10;6.60;;;1.77;;
64353;SDS011;50681;53.334;-6.536;2023-02-26T00:12:40;13.10;;;2.03;;
64353;SDS011;50681;53.334;-6.536;2023-02-26T00:15:38;10.75;;;1.50;;
64353;SDS011;50681;53.334;-6.536;2023-02-26T00:24:51;8.27;;;1.77;;
64353;SDS011;50681;53.334;-6.536;2023-02-26T00:27:21;16.02;;;4.63;;
64353;SDS011;50681;53.334;-6.536;2023-02-26T00:29:55;10.38;;;1.63;;
64353;SDS011;50681;53.334;-6.536;2023-02-26T00:32:20;11.75;;;2.25;;
64353;SDS011;50681;53.334;-6.536;2023-02-26T00:34:47;11.82;;;2.00;;
64353;SDS011;50681;53.334;-6.536;2023-02-26T00:37:20;8.18;;;1.63;;
64353;SDS011;50681;53.334;-6.536;2023-02-26T00:42:40;6.38;;;1.80;;
64353;SDS011;50681;53.334;-6.536;2023-02-26T00:45:06;11.27;;;1.83;;
64353;SDS011;50681;53.334;-6.536;2023-02-26T00:52:50;12.57;;;1.58;;
64353;SDS011;50681;53.334;-6.536;2023-02-26T00:55:27;4.70;;;1.10;;
64353;SDS011;50681;53.334;-6.536;2023-02-26T00:57:53;6.70;;;1.90;;
64353;SDS011;50681;53.334;-6.536;2023-02-26T01:00:19;13.77;;;1.43;;
64353;SDS011;50681;53.334;-6.536;2023-02-26T01:02:45;6.97;;;1.60;;
64353;SDS011;50681;53.334;-6.536;2023-02-26T01:05:11;5.78;;;1.45;;
64353;SDS011;50681;53.334;-6.536;2023-02-26T01:07:39;4.78;;;1.17;;
64353;SDS011;50681;53.334;-6.536;2023-02-26T01:10:30;6.80;;;1.25;;
64353;SDS011;50681;53.334;-6.536;2023-02-26T01:13:00;10.55;;;1.70;;
64353;SDS011;50681;53.334;-6.536;2023-02-26T01:15:28;10.25;;;1.33;;
64353;SDS011;50681;53.334;-6.536;2023-02-26T01:17:59;6.88;;;1.35;;
64353;SDS011;50681;53.334;-6.536;2023-02-26T01:20:49;4.13;;;1.13;;
64353;SDS011;50681;53.334;-6.536;2023-02-26T01:23:24;11.90;;;1.52;;
64353;SDS011;50681;53.334;-6.536;2023-02-26T01:25:58;6.97;;;1.15;;
64353;SDS011;50681;53.334;-6.536;2023-02-26T01:28:46;5.82;;;1.20;;
64353;SDS011;50681;53.334;-6.536;2023-02-26T01:31:33;8.38;;;1.27;;
64353;SDS011;50681;53.334;-6.536;2023-02-26T01:34:10;4.57;;;1.30;;
64353;SDS011;50681;53.334;-6.536;2023-02-26T01:36:43;17.42;;;1.83;;
64353;SDS011;50681;53.334;-6.536;2023-02-26T01:41:54;5.72;;;1.10;;
64353;SDS011;50681;53.334;-6.536;2023-02-26T01:50:23;9.55;;;1.70;;
64353;SDS011;50681;53.334;-6.536;2023-02-26T01:55:34;14.32;;;2.00;;
64353;SDS011;50681;53.334;-6.536;2023-02-26T01:57:59;14.17;;;1.97;;
64353;SDS011;50681;53.334;-6.536;2023-02-26T02:00:26;7.40;;;1.17;;
64353;SDS011;50681;53.334;-6.536;2023-02-26T02:02:54;10.50;;;1.55;;
64353;SDS011;50681;53.334;-6.536;2023-02-26T02:05:22;12.43;;;1.65;;
64353;SDS011;50681;53.334;-6.536;2023-02-26T02:08:09;17.52;;;1.95;;
64353;SDS011;50681;53.334;-6.536;2023-02-26T02:10:39;4.35;;;1.40;;
64353;SDS011;50681;53.334;-6.536;2023-02-26T02:19:23;10.75;;;1.52;;
64353;SDS011;50681;53.334;-6.536;2023-02-26T02:22:17;7.63;;;1.52;;
64353;SDS011;50681;53.334;-6.536;2023-02-26T02:36:27;8.73;;;1.42;;
64353;SDS011;50681;53.334;-6.536;2023-02-26T02:41:57;8.77;;;1.45;;
64353;SDS011;50681;53.334;-6.536;2023-02-26T02:44:30;7.53;;;1.30;;
64353;SDS011;50681;53.334;-6.536;2023-02-26T02:46:58;9.68;;;1.48;;
64353;SDS011;50681;53.334;-6.536;2023-02-26T02:52:12;5.63;;;1.40;;
64353;SDS011;50681;53.334;-6.536;2023-02-26T02:55:28;7.37;;;1.40;;
64353;SDS011;50681;53.334;-6.536;2023-02-26T02:58:07;14.25;;;1.33;;
64353;SDS011;50681;53.334;-6.536;2023-02-26T03:00:38;8.57;;;1.40;;
64353;SDS011;50681;53.334;-6.536;2023-02-26T03:05:59;7.03;;;1.23;;
64353;SDS011;50681;53.334;-6.536;2023-02-26T03:08:30;6.55;;;1.63;;
64353;SDS011;50681;53.334;-6.536;2023-02-26T03:11:05;7.33;;;1.20;;
64353;SDS011;50681;53.334;-6.536;2023-02-26T03:13:33;7.20;;;1.23;;
64353;SDS011;50681;53.334;-6.536;2023-02-26T03:24:24;4.40;;;1.23;;
64353;SDS011;50681;53.334;-6.536;2023-02-26T03:37:57;11.65;;;1.85;;
64353;SDS011;50681;53.334;-6.536;2023-02-26T03:40:36;8.70;;;1.20;;
64353;SDS011;50681;53.334;-6.536;2023-02-26T03:43:12;8.60;;;1.42;;
64353;SDS011;50681;53.334;-6.536;2023-02-26T03:45:39;4.88;;;0.98;;
64353;SDS011;50681;53.334;-6.536;2023-02-26T03:48:10;5.90;;;1.63;;
64353;SDS011;50681;53.334;-6.536;2023-02-26T03:50:45;10.25;;;1.80;;
64353;SDS011;50681;53.334;-6.536;2023-02-26T03:53:21;6.68;;;1.60;;
64353;SDS011;50681;53.334;-6.536;2023-02-26T03:55:52;6.80;;;1.35;;
64353;SDS011;50681;53.334;-6.536;2023-02-26T03:58:27;10.00;;;1.60;;
64353;SDS011;50681;53.334;-6.536;2023-02-26T04:00:59;11.38;;;1.15;;
64353;SDS011;50681;53.334;-6.536;2023-02-26T04:03:48;4.55;;;1.10;;
64353;SDS011;50681;53.334;-6.536;2023-02-26T04:06:21;5.32;;;1.00;;
64353;SDS011;50681;53.334;-6.536;2023-02-26T04:11:15;7.30;;;1.10;;
64353;SDS011;50681;53.334;-6.536;2023-02-26T04:13:43;8.60;;;0.90;;
64353;SDS011;50681;53.334;-6.536;2023-02-26T04:16:09;7.35;;;1.30;;
64353;SDS011;50681;53.334;-6.536;2023-02-26T04:18:35;4.67;;;0.97;;
64353;SDS011;50681;53.334;-6.536;2023-02-26T04:21:01;6.45;;;1.23;;
64353;SDS011;50681;53.334;-6.536;2023-02-26T04:23:27;5.23;;;1.10;;
64353;SDS011;50681;53.334;-6.536;2023-02-26T04:25:53;21.63;;;6.05;;
64353;SDS011;50681;53.334;-6.536;2023-02-26T04:28:18;8.40;;;1.00;;
64353;SDS011;50681;53.334;-6.536;2023-02-26T04:30:46;4.50;;;0.90;;
64353;SDS011;50681;53.334;-6.536;2023-02-26T04:33:12;13.87;;;1.07;;
64353;SDS011;50681;53.334;-6.536;2023-02-26T04:35:39;7.13;;;1.65;;
64353;SDS011;50681;53.334;-6.536;2023-02-26T04:38:05;3.17;;;1.27;;
64353;SDS011;50681;53.334;-6.536;2023-02-26T04:40:30;4.53;;;1.20;;
64353;SDS011;50681;53.334;-6.536;2023-02-26T04:43:00;10.32;;;1.48;;
64353;SDS011;50681;53.334;-6.536;2023-02-26T04:45:25;4.20;;;0.95;;
64353;SDS011;50681;53.334;-6.536;2023-02-26T04:47:51;6.07;;;1.13;;
64353;SDS011;50681;53.334;-6.536;2023-02-26T04:50:17;9.17;;;1.07;;
64353;SDS011;50681;53.334;-6.536;2023-02-26T04:52:42;5.00;;;1.03;;
64353;SDS011;50681;53.334;-6.536;2023-02-26T04:55:08;3.23;;;0.90;;
64353;SDS011;50681;53.334;-6.536;2023-02-26T04:57:34;8.40;;;1.20;;
64353;SDS011;50681;53.334;-6.536;2023-02-26T04:59:59;7.40;;;1.20;;
64353;SDS011;50681;53.334;-6.536;2023-02-26T05:02:24;6.87;;;1.37;;
64353;SDS011;50681;53.334;-6.536;2023-02-26T05:04:50;8.37;;;1.50;;
64353;SDS011;50681;53.334;-6.536;2023-02-26T05:07:15;7.40;;;1.50;;
64353;SDS011;50681;53.334;-6.536;2023-02-26T05:09:41;14.83;;;1.33;;
64353;SDS011;50681;53.334;-6.536;2023-02-26T05:12:06;6.97;;;1.20;;
64353;SDS011;50681;53.334;-6.536;2023-02-26T05:14:32;6.33;;;1.30;;
64353;SDS011;50681;53.334;-6.536;2023-02-26T05:16:57;7.00;;;1.20;;
64353;SDS011;50681;53.334;-6.536;2023-02-26T05:19:24;19.83;;;2.67;;
64353;SDS011;50681;53.334;-6.536;2023-02-26T05:21:50;15.82;;;1.70;;
64353;SDS011;50681;53.334;-6.536;2023-02-26T05:24:15;9.15;;;1.30;;
64353;SDS011;50681;53.334;-6.536;2023-02-26T05:26:41;7.70;;;1.15;;
64353;SDS011;50681;53.334;-6.536;2023-02-26T05:29:07;7.30;;;1.10;;
64353;SDS011;50681;53.334;-6.536;2023-02-26T05:31:32;9.07;;;1.53;;
64353;SDS011;50681;53.334;-6.536;2023-02-26T05:33:58;10.73;;;1.43;;
64353;SDS011;50681;53.334;-6.536;2023-02-26T05:36:23;8.30;;;1.30;;
64353;SDS011;50681;53.334;-6.536;2023-02-26T05:38:49;9.27;;;1.42;;
64353;SDS011;50681;53.334;-6.536;2023-02-26T05:41:15;8.93;;;1.70;;
64353;SDS011;50681;53.334;-6.536;2023-02-26T05:43:43;10.50;;;1.50;;
64353;SDS011;50681;53.334;-6.536;2023-02-26T05:46:11;6.50;;;1.33;;
64353;SDS011;50681;53.334;-6.536;2023-02-26T05:48:38;12.35;;;1.25;;
64353;SDS011;50681;53.334;-6.536;2023-02-26T05:51:03;7.17;;;1.33;;
64353;SDS011;50681;53.334;-6.536;2023-02-26T05:53:29;5.05;;;1.45;;
64353;SDS011;50681;53.334;-6.536;2023-02-26T05:55:57;7.57;;;1.17;;
64353;SDS011;50681;53.334;-6.536;2023-02-26T05:58:26;10.95;;;2.65;;
64353;SDS011;50681;53.334;-6.536;2023-02-26T06:00:56;5.55;;;1.30;;
64353;SDS011;50681;53.334;-6.536;2023-02-26T06:03:24;13.02;;;1.60;;
64353;SDS011;50681;53.334;-6.536;2023-02-26T06:05:50;7.43;;;1.10;;
64353;SDS011;50681;53.334;-6.536;2023-02-26T06:08:17;11.40;;;1.13;;
64353;SDS011;50681;53.334;-6.536;2023-02-26T06:10:45;7.05;;;1.77;;
64353;SDS011;50681;53.334;-6.536;2023-02-26T06:13:11;10.97;;;1.57;;
64353;SDS011;50681;53.334;-6.536;2023-02-26T06:15:36;4.53;;;0.70;;
64353;SDS011;50681;53.334;-6.536;2023-02-26T06:18:02;9.40;;;1.60;;
64353;SDS011;50681;53.334;-6.536;2023-02-26T06:20:28;9.98;;;1.55;;
64353;SDS011;50681;53.334;-6.536;2023-02-26T06:22:53;7.80;;;1.80;;
64353;SDS011;50681;53.334;-6.536;2023-02-26T06:25:19;7.57;;;1.80;;
64353;SDS011;50681;53.334;-6.536;2023-02-26T06:27:44;3.30;;;1.20;;
64353;SDS011;50681;53.334;-6.536;2023-02-26T06:30:10;10.23;;;1.23;;
64353;SDS011;50681;53.334;-6.536;2023-02-26T06:32:36;6.03;;;1.10;;
64353;SDS011;50681;53.334;-6.536;2023-02-26T06:35:01;6.20;;;1.03;;
64353;SDS011;50681;53.334;-6.536;2023-02-26T06:37:27;4.68;;;1.65;;
64353;SDS011;50681;53.334;-6.536;2023-02-26T06:39:53;11.97;;;1.63;;
64353;SDS011;50681;53.334;-6.536;2023-02-26T06:42:18;8.48;;;1.27;;
64353;SDS011;50681;53.334;-6.536;2023-02-26T06:44:44;8.37;;;1.40;;
64353;SDS011;50681;53.334;-6.536;2023-02-26T06:47:09;6.83;;;1.03;;
64353;SDS011;50681;53.334;-6.536;2023-02-26T06:49:35;3.00;;;0.80;;
64353;SDS011;50681;53.334;-6.536;2023-02-26T06:52:03;6.50;;;1.30;;
64353;SDS011;50681;53.334;-6.536;2023-02-26T06:54:29;10.68;;;1.35;;
64353;SDS011;50681;53.334;-6.536;2023-02-26T06:56:55;10.10;;;1.73;;
64353;SDS011;50681;53.334;-6.536;2023-02-26T06:59:22;7.00;;;1.35;;
64353;SDS011;50681;53.334;-6.536;2023-02-26T07:01:48;14.27;;;1.20;;
64353;SDS011;50681;53.334;-6.536;2023-02-26T07:06:40;11.45;;;1.20;;
64353;SDS011;50681;53.334;-6.536;2023-02-26T07:09:09;7.97;;;1.63;;
64353;SDS011;50681;53.334;-6.536;2023-02-26T07:11:34;4.40;;;1.10;;
64353;SDS011;50681;53.334;-6.536;2023-02-26T07:14:02;7.75;;;1.08;;
64353;SDS011;50681;53.334;-6.536;2023-02-26T07:18:54;6.20;;;1.20;;
64353;SDS011;50681;53.334;-6.536;2023-02-26T07:24:18;4.82;;;1.00;;
64353;SDS011;50681;53.334;-6.536;2023-02-26T07:26:46;5.32;;;1.10;;
64353;SDS011;50681;53.334;-6.536;2023-02-26T07:29:13;11.32;;;2.25;;
64353;SDS011;50681;53.334;-6.536;2023-02-26T07:31:38;9.43;;;1.30;;
64353;SDS011;50681;53.334;-6.536;2023-02-26T07:34:07;8.57;;;1.27;;
64353;SDS011;50681;53.334;-6.536;2023-02-26T07:36:32;7.10;;;1.15;;
64353;SDS011;50681;53.334;-6.536;2023-02-26T07:38:58;8.23;;;1.17;;
64353;SDS011;50681;53.334;-6.536;2023-02-26T07:41:35;15.40;;;1.30;;
64353;SDS011;50681;53.334;-6.536;2023-02-26T07:44:00;12.85;;;1.58;;
64353;SDS011;50681;53.334;-6.536;2023-02-26T07:46:25;6.43;;;1.20;;
64353;SDS011;50681;53.334;-6.536;2023-02-26T07:48:54;6.97;;;1.40;;
64353;SDS011;50681;53.334;-6.536;2023-02-26T07:51:24;10.98;;;1.20;;
64353;SDS011;50681;53.334;-6.536;2023-02-26T07:53:52;9.10;;;1.30;;
64353;SDS011;50681;53.334;-6.536;2023-02-26T07:56:20;8.23;;;1.38;;
64353;SDS011;50681;53.334;-6.536;2023-02-26T07:58:49;10.05;;;1.38;;
64353;SDS011;50681;53.334;-6.536;2023-02-26T08:01:15;9.83;;;1.43;;
64353;SDS011;50681;53.334;-6.536;2023-02-26T08:03:40;7.60;;;1.00;;
64353;SDS011;50681;53.334;-6.536;2023-02-26T08:06:09;8.37;;;1.43;;
64353;SDS011;50681;53.334;-6.536;2023-02-26T08:08:34;9.45;;;1.33;;
64353;SDS011;50681;53.334;-6.536;2023-02-26T08:11:00;4.73;;;1.40;;
64353;SDS011;50681;53.334;-6.536;2023-02-26T08:13:26;4.90;;;0.80;;
64353;SDS011;50681;53.334;-6.536;2023-02-26T08:15:52;6.43;;;1.05;;
64353;SDS011;50681;53.334;-6.536;2023-02-26T08:18:21;6.95;;;1.38;;
64353;SDS011;50681;53.334;-6.536;2023-02-26T08:20:49;7.85;;;1.50;;
64353;SDS011;50681;53.334;-6.536;2023-02-26T08:23:16;8.60;;;1.55;;
64353;SDS011;50681;53.334;-6.536;2023-02-26T08:25:42;8.90;;;1.63;;
64353;SDS011;50681;53.334;-6.536;2023-02-26T08:28:07;10.43;;;1.57;;
64353;SDS011;50681;53.334;-6.536;2023-02-26T08:34:07;10.52;;;1.65;;
64353;SDS011;50681;53.334;-6.536;2023-02-26T08:36:35;16.67;;;1.80;;
64353;SDS011;50681;53.334;-6.536;2023-02-26T08:39:11;9.52;;;1.20;;
64353;SDS011;50681;53.334;-6.536;2023-02-26T08:41:37;6.70;;;1.52;;
64353;SDS011;50681;53.334;-6.536;2023-02-26T08:44:02;12.67;;;1.93;;
64353;SDS011;50681;53.334;-6.536;2023-02-26T08:46:28;9.65;;;1.80;;
64353;SDS011;50681;53.334;-6.536;2023-02-26T08:48:57;8.90;;;1.17;;
64353;SDS011;50681;53.334;-6.536;2023-02-26T08:51:36;8.23;;;1.42;;
64353;SDS011;50681;53.334;-6.536;2023-02-26T09:04:02;7.97;;;1.50;;
64353;SDS011;50681;53.334;-6.536;2023-02-26T09:06:27;9.50;;;1.50;;
64353;SDS011;50681;53.334;-6.536;2023-02-26T09:08:53;8.27;;;1.50;;
64353;SDS011;50681;53.334;-6.536;2023-02-26T09:11:19;5.18;;;1.10;;
64353;SDS011;50681;53.334;-6.536;2023-02-26T09:13:44;13.90;;;1.70;;
64353;SDS011;50681;53.334;-6.536;2023-02-26T09:16:12;13.67;;;2.00;;
64353;SDS011;50681;53.334;-6.536;2023-02-26T09:18:40;9.35;;;1.92;;
64353;SDS011;50681;53.334;-6.536;2023-02-26T09:21:06;10.35;;;1.52;;
64353;SDS011;50681;53.334;-6.536;2023-02-26T09:23:31;9.27;;;1.17;;
64353;SDS011;50681;53.334;-6.536;2023-02-26T09:25:57;7.80;;;1.30;;
64353;SDS011;50681;53.334;-6.536;2023-02-26T09:28:23;14.23;;;1.80;;
64353;SDS011;50681;53.334;-6.536;2023-02-26T09:30:52;15.20;;;1.92;;
64353;SDS011;50681;53.334;-6.536;2023-02-26T09:33:19;9.40;;;1.58;;
64353;SDS011;50681;53.334;-6.536;2023-02-26T09:35:48;11.65;;;2.28;;
64353;SDS011;50681;53.334;-6.536;2023-02-26T09:38:15;7.53;;;1.70;;
64353;SDS011;50681;53.334;-6.536;2023-02-26T09:40:49;17.25;;;2.60;;
64353;SDS011;50681;53.334;-6.536;2023-02-26T09:45:58;22.15;;;1.90;;
64353;SDS011;50681;53.334;-6.536;2023-02-26T09:48:29;15.35;;;2.42;;
64353;SDS011;50681;53.334;-6.536;2023-02-26T09:53:47;7.18;;;1.77;;
64353;SDS011;50681;53.334;-6.536;2023-02-26T09:56:21;8.00;;;1.98;;
64353;SDS011;50681;53.334;-6.536;2023-02-26T09:58:49;15.45;;;2.55;;
64353;SDS011;50681;53.334;-6.536;2023-02-26T10:01:27;8.38;;;1.75;;
64353;SDS011;50681;53.334;-6.536;2023-02-26T10:06:27;5.70;;;1.42;;
64353;SDS011;50681;53.334;-6.536;2023-02-26T10:11:47;5.38;;;1.25;;
64353;SDS011;50681;53.334;-6.536;2023-02-26T10:14:32;10.95;;;1.80;;
64353;SDS011;50681;53.334;-6.536;2023-02-26T10:17:17;7.93;;;2.08;;
64353;SDS011;50681;53.334;-6.536;2023-02-26T10:19:44;5.03;;;1.10;;
64353;SDS011;50681;53.334;-6.536;2023-02-26T10:22:39;10.63;;;1.58;;
64353;SDS011;50681;53.334;-6.536;2023-02-26T10:25:23;11.93;;;2.00;;
64353;SDS011;50681;53.334;-6.536;2023-02-26T10:28:16;11.13;;;1.88;;
64353;SDS011;50681;53.334;-6.536;2023-02-26T10:36:40;12.77;;;2.55;;
64353;SDS011;50681;53.334;-6.536;2023-02-26T10:39:26;16.30;;;1.92;;
64353;SDS011;50681;53.334;-6.536;2023-02-26T10:42:08;8.63;;;1.58;;
64353;SDS011;50681;53.334;-6.536;2023-02-26T10:47:28;11.95;;;1.73;;
64353;SDS011;50681;53.334;-6.536;2023-02-26T10:50:16;10.48;;;1.85;;
64353;SDS011;50681;53.334;-6.536;2023-02-26T10:52:45;10.00;;;2.63;;
64353;SDS011;50681;53.334;-6.536;2023-02-26T10:55:24;8.38;;;1.52;;
64353;SDS011;50681;53.334;-6.536;2023-02-26T10:58:05;11.88;;;2.17;;
64353;SDS011;50681;53.334;-6.536;2023-02-26T11:00:36;8.32;;;1.85;;
64353;SDS011;50681;53.334;-6.536;2023-02-26T11:03:03;11.45;;;2.00;;
64353;SDS011;50681;53.334;-6.536;2023-02-26T11:05:32;16.15;;;2.20;;
64353;SDS011;50681;53.334;-6.536;2023-02-26T11:08:32;14.15;;;1.60;;
64353;SDS011;50681;53.334;-6.536;2023-02-26T11:10:57;17.27;;;2.55;;
64353;SDS011;50681;53.334;-6.536;2023-02-26T11:13:26;9.52;;;1.50;;
64353;SDS011;50681;53.334;-6.536;2023-02-26T11:15:55;10.13;;;1.67;;
64353;SDS011;50681;53.334;-6.536;2023-02-26T11:18:23;10.75;;;1.75;;
64353;SDS011;50681;53.334;-6.536;2023-02-26T11:20:54;5.70;;;1.42;;
64353;SDS011;50681;53.334;-6.536;2023-02-26T11:23:23;11.88;;;1.80;;
64353;SDS011;50681;53.334;-6.536;2023-02-26T11:25:53;13.50;;;2.05;;
64353;SDS011;50681;53.334;-6.536;2023-02-26T11:28:31;9.45;;;1.52;;
64353;SDS011;50681;53.334;-6.536;2023-02-26T11:31:04;7.18;;;1.60;;
64353;SDS011;50681;53.334;-6.536;2023-02-26T11:33:36;14.88;;;2.03;;
64353;SDS011;50681;53.334;-6.536;2023-02-26T11:36:10;15.20;;;1.83;;
64353;SDS011;50681;53.334;-6.536;2023-02-26T11:38:38;11.07;;;1.83;;
64353;SDS011;50681;53.334;-6.536;2023-02-26T11:43:36;9.27;;;1.98;;
64353;SDS011;50681;53.334;-6.536;2023-02-26T11:46:06;11.30;;;2.00;;
64353;SDS011;50681;53.334;-6.536;2023-02-26T11:48:40;9.63;;;2.42;;
64353;SDS011;50681;53.334;-6.536;2023-02-26T11:51:18;12.40;;;2.10;;
64353;SDS011;50681;53.334;-6.536;2023-02-26T11:53:50;8.55;;;1.95;;
64353;SDS011;50681;53.334;-6.536;2023-02-26T11:56:29;10.68;;;1.45;;
64353;SDS011;50681;53.334;-6.536;2023-02-26T11:59:01;12.27;;;2.17;;
64353;SDS011;50681;53.334;-6.536;2023-02-26T12:01:32;13.52;;;2.55;;
64353;SDS011;50681;53.334;-6.536;2023-02-26T12:04:00;9.23;;;1.98;;
64353;SDS011;50681;53.334;-6.536;2023-02-26T12:06:27;9.77;;;2.65;;
64353;SDS011;50681;53.334;-6.536;2023-02-26T12:08:53;16.80;;;2.45;;
64353;SDS011;50681;53.334;-6.536;2023-02-26T12:23:03;10.70;;;1.60;;
64353;SDS011;50681;53.334;-6.536;2023-02-26T12:28:38;20.15;;;2.80;;
64353;SDS011;50681;53.334;-6.536;2023-02-26T12:31:23;10.90;;;2.20;;
64353;SDS011;50681;53.334;-6.536;2023-02-26T12:42:10;10.07;;;2.10;;
64353;SDS011;50681;53.334;-6.536;2023-02-26T12:45:06;12.30;;;2.00;;
64353;SDS011;50681;53.334;-6.536;2023-02-26T12:50:27;10.68;;;1.98;;
64353;SDS011;50681;53.334;-6.536;2023-02-26T12:58:53;7.50;;;1.20;;
64353;SDS011;50681;53.334;-6.536;2023-02-26T13:01:43;9.68;;;1.90;;
64353;SDS011;50681;53.334;-6.536;2023-02-26T13:09:59;10.73;;;1.92;;
64353;SDS011;50681;53.334;-6.536;2023-02-26T13:15:07;14.52;;;2.05;;
64353;SDS011;50681;53.334;-6.536;2023-02-26T13:17:41;18.52;;;1.92;;
64353;SDS011;50681;53.334;-6.536;2023-02-26T13:20:18;11.10;;;1.90;;
64353;SDS011;50681;53.334;-6.536;2023-02-26T13:25:46;15.40;;;2.08;;
64353;SDS011;50681;53.334;-6.536;2023-02-26T13:31:04;7.47;;;1.42;;
64353;SDS011;50681;53.334;-6.536;2023-02-26T13:33:34;10.55;;;2.13;;
64353;SDS011;50681;53.334;-6.536;2023-02-26T13:36:01;12.07;;;3.10;;
64353;SDS011;50681;53.334;-6.536;2023-02-26T13:41:48;11.55;;;2.05;;
64353;SDS011;50681;53.334;-6.536;2023-02-26T13:44:24;10.85;;;2.10;;
64353;SDS011;50681;53.334;-6.536;2023-02-26T13:47:04;13.88;;;2.42;;
64353;SDS011;50681;53.334;-6.536;2023-02-26T13:50:18;8.02;;;1.60;;
64353;SDS011;50681;53.334;-6.536;2023-02-26T13:52:50;9.40;;;2.28;;
64353;SDS011;50681;53.334;-6.536;2023-02-26T13:55:36;11.20;;;2.53;;
64353;SDS011;50681;53.334;-6.536;2023-02-26T14:03:51;17.30;;;2.10;;
64353;SDS011;50681;53.334;-6.536;2023-02-26T14:07:12;8.25;;;2.10;;
64353;SDS011;50681;53.334;-6.536;2023-02-26T14:12:42;11.95;;;2.08;;
64353;SDS011;50681;53.334;-6.536;2023-02-26T14:17:41;11.80;;;1.77;;
64353;SDS011;50681;53.334;-6.536;2023-02-26T14:20:15;7.80;;;1.55;;
64353;SDS011;50681;53.334;-6.536;2023-02-26T14:22:57;7.63;;;1.95;;
64353;SDS011;50681;53.334;-6.536;2023-02-26T14:30:50;13.98;;;2.50;;
64353;SDS011;50681;53.334;-6.536;2023-02-26T14:33:45;10.90;;;2.20;;
64353;SDS011;50681;53.334;-6.536;2023-02-26T14:36:34;9.02;;;1.98;;
64353;SDS011;50681;53.334;-6.536;2023-02-26T14:39:05;8.88;;;1.98;;
64353;SDS011;50681;53.334;-6.536;2023-02-26T14:41:38;11.77;;;2.83;;
64353;SDS011;50681;53.334;-6.536;2023-02-26T14:44:15;13.75;;;2.67;;
64353;SDS011;50681;53.334;-6.536;2023-02-26T14:46:45;15.02;;;2.65;;
64353;SDS011;50681;53.334;-6.536;2023-02-26T14:49:18;17.13;;;4.53;;
64353;SDS011;50681;53.334;-6.536;2023-02-26T14:51:53;15.43;;;2.78;;
64353;SDS011;50681;53.334;-6.536;2023-02-26T15:02:27;10.05;;;2.30;;
64353;SDS011;50681;53.334;-6.536;2023-02-26T15:10:49;17.75;;;1.98;;
64353;SDS011;50681;53.334;-6.536;2023-02-26T15:23:41;10.32;;;2.45;;
64353;SDS011;50681;53.334;-6.536;2023-02-26T15:26:45;13.07;;;2.10;;
64353;SDS011;50681;53.334;-6.536;2023-02-26T15:29:14;18.00;;;4.43;;
64353;SDS011;50681;53.334;-6.536;2023-02-26T15:31:41;9.52;;;1.52;;
64353;SDS011;50681;53.334;-6.536;2023-02-26T15:34:12;19.83;;;4.63;;
64353;SDS011;50681;53.334;-6.536;2023-02-26T15:36:46;10.68;;;1.80;;
64353;SDS011;50681;53.334;-6.536;2023-02-26T15:39:15;12.35;;;1.85;;
64353;SDS011;50681;53.334;-6.536;2023-02-26T15:41:42;7.55;;;1.90;;
64353;SDS011;50681;53.334;-6.536;2023-02-26T15:44:12;9.15;;;1.70;;
64353;SDS011;50681;53.334;-6.536;2023-02-26T15:46:43;4.80;;;1.33;;
64353;SDS011;50681;53.334;-6.536;2023-02-26T15:49:22;10.85;;;1.73;;
64353;SDS011;50681;53.334;-6.536;2023-02-26T15:51:53;13.93;;;2.60;;
64353;SDS011;50681;53.334;-6.536;2023-02-26T15:54:19;9.13;;;2.40;;
64353;SDS011;50681;53.334;-6.536;2023-02-26T15:56:48;8.85;;;1.90;;
64353;SDS011;50681;53.334;-6.536;2023-02-26T15:59:18;4.18;;;1.40;;
64353;SDS011;50681;53.334;-6.536;2023-02-26T16:01:48;14.48;;;3.33;;
64353;SDS011;50681;53.334;-6.536;2023-02-26T16:04:17;9.82;;;1.90;;
64353;SDS011;50681;53.334;-6.536;2023-02-26T16:06:45;11.18;;;2.40;;
64353;SDS011;50681;53.334;-6.536;2023-02-26T16:09:23;11.32;;;2.38;;
64353;SDS011;50681;53.334;-6.536;2023-02-26T16:11:52;13.63;;;2.70;;
64353;SDS011;50681;53.334;-6.536;2023-02-26T16:14:22;10.57;;;2.00;;
64353;SDS011;50681;53.334;-6.536;2023-02-26T16:16:51;14.63;;;2.35;;
64353;SDS011;50681;53.334;-6.536;2023-02-26T16:19:20;7.50;;;2.13;;
64353;SDS011;50681;53.334;-6.536;2023-02-26T16:21:56;8.75;;;1.75;;
64353;SDS011;50681;53.334;-6.536;2023-02-26T16:24:24;9.20;;;1.80;;
64353;SDS011;50681;53.334;-6.536;2023-02-26T16:26:52;14.50;;;2.22;;
64353;SDS011;50681;53.334;-6.536;2023-02-26T16:29:27;14.45;;;3.13;;
64353;SDS011;50681;53.334;-6.536;2023-02-26T16:31:59;17.38;;;3.10;;
64353;SDS011;50681;53.334;-6.536;2023-02-26T16:37:12;13.27;;;2.78;;
64353;SDS011;50681;53.334;-6.536;2023-02-26T16:39:55;14.35;;;3.15;;
64353;SDS011;50681;53.334;-6.536;2023-02-26T16:42:43;12.90;;;3.15;;
64353;SDS011;50681;53.334;-6.536;2023-02-26T16:47:43;15.38;;;3.05;;
64353;SDS011;50681;53.334;-6.536;2023-02-26T16:50:27;22.63;;;6.13;;
64353;SDS011;50681;53.334;-6.536;2023-02-26T16:55:29;10.05;;;3.03;;
64353;SDS011;50681;53.334;-6.536;2023-02-26T16:57:58;20.40;;;2.70;;
64353;SDS011;50681;53.334;-6.536;2023-02-26T17:00:27;10.85;;;1.70;;
64353;SDS011;50681;53.334;-6.536;2023-02-26T17:02:58;9.63;;;2.58;;
64353;SDS011;50681;53.334;-6.536;2023-02-26T17:05:32;17.23;;;3.22;;
64353;SDS011;50681;53.334;-6.536;2023-02-26T17:08:18;12.90;;;2.70;;
64353;SDS011;50681;53.334;-6.536;2023-02-26T17:10:49;6.38;;;1.85;;
64353;SDS011;50681;53.334;-6.536;2023-02-26T17:13:29;12.02;;;2.17;;
64353;SDS011;50681;53.334;-6.536;2023-02-26T17:16:03;11.23;;;3.40;;
64353;SDS011;50681;53.334;-6.536;2023-02-26T17:18:31;10.55;;;2.08;;
64353;SDS011;50681;53.334;-6.536;2023-02-26T17:20:58;16.35;;;3.45;;
64353;SDS011;50681;53.334;-6.536;2023-02-26T17:23:29;10.48;;;3.08;;
64353;SDS011;50681;53.334;-6.536;2023-02-26T17:25:56;13.10;;;2.90;;
64353;SDS011;50681;53.334;-6.536;2023-02-26T17:28:27;12.77;;;2.33;;
64353;SDS011;50681;53.334;-6.536;2023-02-26T17:30:54;14.48;;;2.30;;
64353;SDS011;50681;53.334;-6.536;2023-02-26T17:33:20;17.88;;;3.78;;
64353;SDS011;50681;53.334;-6.536;2023-02-26T17:35:46;12.82;;;3.42;;
64353;SDS011;50681;53.334;-6.536;2023-02-26T17:38:12;7.50;;;2.83;;
64353;SDS011;50681;53.334;-6.536;2023-02-26T17:40:40;20.65;;;3.38;;
64353;SDS011;50681;53.334;-6.536;2023-02-26T17:43:07;16.35;;;3.58;;
64353;SDS011;50681;53.334;-6.536;2023-02-26T17:45:34;28.08;;;5.85;;
64353;SDS011;50681;53.334;-6.536;2023-02-26T17:48:01;16.70;;;4.35;;
64353;SDS011;50681;53.334;-6.536;2023-02-26T17:50:47;17.63;;;4.50;;
64353;SDS011;50681;53.334;-6.536;2023-02-26T17:53:14;10.68;;;3.70;;
64353;SDS011;50681;53.334;-6.536;2023-02-26T17:55:41;18.08;;;4.05;;
64353;SDS011;50681;53.334;-6.536;2023-02-26T17:58:12;25.58;;;5.15;;
64353;SDS011;50681;53.334;-6.536;2023-02-26T18:00:40;12.60;;;4.35;;
64353;SDS011;50681;53.334;-6.536;2023-02-26T18:03:07;16.52;;;4.22;;
64353;SDS011;50681;53.334;-6.536;2023-02-26T18:05:35;23.33;;;4.65;;
64353;SDS011;50681;53.334;-6.536;2023-02-26T18:08:22;13.50;;;3.53;;
64353;SDS011;50681;53.334;-6.536;2023-02-26T18:10:52;11.15;;;3.10;;
64353;SDS011;50681;53.334;-6.536;2023-02-26T18:13:19;19.58;;;3.65;;
64353;SDS011;50681;53.334;-6.536;2023-02-26T18:15:46;13.02;;;3.17;;
64353;SDS011;50681;53.334;-6.536;2023-02-26T18:18:12;18.30;;;3.53;;
64353;SDS011;50681;53.334;-6.536;2023-02-26T18:20:39;15.93;;;3.70;;
64353;SDS011;50681;53.334;-6.536;2023-02-26T18:23:05;17.80;;;4.22;;
64353;SDS011;50681;53.334;-6.536;2023-02-26T18:25:32;26.05;;;4.65;;